Time;durP1;ratioP1;P1;durP2;ratioP2;P2;SDS_P1;SDS_P2;PMS_P1;PMS_P2;Temp;Humidity;BMP_temperature;BMP_pressure;BME280_temperature;BME280_humidity;BME280_pressure;Samples;Min_cycle;Max_cycle;Signal;HPM_P1;HPM_P2
2022/01/24 00:00:08;;;;;;;25.58;12.65;;;5.20;99.90;;;;;;5098968;28;20044;-78
2022/01/24 00:02:34;;;;;;;25.23;13.05;;;5.20;99.90;;;;;;5062169;28;20532;-78
2022/01/24 00:04:59;;;;;;;26.77;13.60;;;5.20;99.90;;;;;;5078158;28;20054;-78
2022/01/24 00:07:25;;;;;;;30.27;14.25;;;5.30;99.90;;;;;;5084816;28;20049;-78
2022/01/24 00:09:54;;;;;;;28.90;14.00;;;5.10;99.90;;;;;;5078882;28;20095;-77
2022/01/24 00:12:31;;;;;;;29.23;13.35;;;5.10;99.90;;;;;;5077572;28;20055;-78
2022/01/24 00:15:19;;;;;;;25.13;13.25;;;5.10;99.90;;;;;;5082254;28;20559;-81
2022/01/24 00:17:51;;;;;;;25.20;12.13;;;5.30;99.90;;;;;;5087012;28;20044;-81
2022/01/24 00:28:25;;;;;;;26.20;13.05;;;5.10;99.90;;;;;;5084896;28;20044;-77
2022/01/24 00:30:51;;;;;;;28.17;13.70;;;5.10;99.90;;;;;;5087981;28;20056;-77
2022/01/24 00:33:19;;;;;;;26.45;12.55;;;5.10;99.90;;;;;;5086539;28;20040;-76
2022/01/24 00:35:46;;;;;;;28.33;13.85;;;5.10;99.90;;;;;;5084293;28;20052;-79
2022/01/24 00:38:11;;;;;;;25.20;13.52;;;5.00;99.90;;;;;;5079265;28;20052;-81
2022/01/24 00:40:40;;;;;;;23.80;12.35;;;5.20;99.90;;;;;;5080166;28;20100;-79
2022/01/24 00:46:08;;;;;;;21.17;11.73;;;5.00;99.90;;;;;;5079705;28;20098;-83
2022/01/24 00:48:59;;;;;;;19.80;11.18;;;5.10;99.90;;;;;;5086441;28;20040;-82
2022/01/24 00:56:51;;;;;;;23.58;12.35;;;5.10;99.90;;;;;;5099816;28;20056;-79
2022/01/24 00:59:17;;;;;;;21.75;10.63;;;5.10;99.90;;;;;;5098949;28;20090;-82
2022/01/24 01:01:43;;;;;;;23.02;11.63;;;5.00;99.90;;;;;;5098465;28;20516;-81
2022/01/24 01:04:09;;;;;;;17.65;10.50;;;5.00;99.90;;;;;;5092245;28;20093;-84
2022/01/24 01:06:35;;;;;;;22.25;11.30;;;5.00;99.90;;;;;;5098075;28;20073;-82
2022/01/24 01:19:59;;;;;;;16.60;9.07;;;5.00;99.90;;;;;;5078941;28;20048;-83
2022/01/24 01:22:24;;;;;;;16.17;8.82;;;5.00;99.90;;;;;;5070071;28;20041;-79
2022/01/24 01:24:53;;;;;;;18.67;9.77;;;5.00;99.90;;;;;;5077866;28;20048;-84
2022/01/24 01:27:25;;;;;;;16.38;9.60;;;4.90;99.90;;;;;;5099150;28;20239;-81
2022/01/24 01:30:00;;;;;;;16.58;9.43;;;4.90;99.90;;;;;;5093911;28;20048;-80
2022/01/24 01:32:43;;;;;;;18.50;10.18;;;4.90;99.90;;;;;;5098202;28;20560;-81
2022/01/24 01:56:31;;;;;;;17.05;9.55;;;4.80;99.90;;;;;;5089918;28;20059;-78
2022/01/24 01:58:57;;;;;;;16.67;8.45;;;4.90;99.90;;;;;;5080740;28;20067;-81
2022/01/24 02:01:23;;;;;;;16.63;8.77;;;4.90;99.90;;;;;;5092349;28;20059;-79
2022/01/24 02:03:50;;;;;;;16.23;9.05;;;4.80;99.90;;;;;;5076269;28;20056;-81
2022/01/24 02:06:16;;;;;;;16.88;8.05;;;4.80;99.90;;;;;;5093256;28;20523;-78
2022/01/24 02:08:42;;;;;;;16.65;8.18;;;5.00;99.90;;;;;;5077987;28;20058;-80
2022/01/24 02:11:10;;;;;;;16.45;8.05;;;4.80;99.90;;;;;;5093097;28;20048;-77
2022/01/24 02:13:36;;;;;;;15.77;8.52;;;4.80;99.90;;;;;;5078050;28;20119;-76
2022/01/24 02:16:18;;;;;;;17.35;8.18;;;4.80;99.90;;;;;;5076571;28;20153;-77
2022/01/24 02:19:08;;;;;;;16.23;8.65;;;4.80;99.90;;;;;;5078762;28;20409;-77
2022/01/24 02:21:47;;;;;;;15.05;8.20;;;4.80;99.90;;;;;;5076659;28;20079;-77
2022/01/24 02:24:15;;;;;;;15.57;8.98;;;4.70;99.90;;;;;;5081121;28;20147;-77
2022/01/24 02:26:41;;;;;;;16.30;8.73;;;4.80;99.90;;;;;;5096441;28;20048;-78
2022/01/24 02:29:27;;;;;;;13.82;8.38;;;4.80;99.90;;;;;;5075950;28;20040;-77
2022/01/24 02:31:54;;;;;;;13.52;7.45;;;4.80;99.90;;;;;;5085973;28;20079;-78
2022/01/24 02:34:35;;;;;;;15.00;8.05;;;4.80;99.90;;;;;;5075974;28;20496;-77
2022/01/24 02:37:06;;;;;;;15.68;8.82;;;4.80;99.90;;;;;;5092211;28;20139;-77
2022/01/24 02:53:10;;;;;;;14.85;8.32;;;4.90;99.90;;;;;;5082190;28;20056;-81
2022/01/24 02:55:37;;;;;;;15.00;7.78;;;5.00;99.90;;;;;;5080827;28;20109;-81
2022/01/24 02:58:03;;;;;;;14.48;8.05;;;4.90;99.90;;;;;;5080547;28;20052;-82
2022/01/24 03:00:29;;;;;;;15.35;7.90;;;4.90;99.90;;;;;;5085631;28;20067;-82
2022/01/24 03:02:55;;;;;;;13.55;7.72;;;4.90;99.90;;;;;;5099725;28;20044;-83
2022/01/24 03:05:21;;;;;;;16.02;8.38;;;4.90;99.90;;;;;;5093895;28;20028;-79
2022/01/24 03:07:47;;;;;;;16.90;8.18;;;4.80;99.90;;;;;;5091579;28;20041;-78
2022/01/24 03:10:23;;;;;;;14.43;8.43;;;4.90;99.90;;;;;;5080422;28;20070;-81
2022/01/24 03:12:58;;;;;;;16.00;7.80;;;4.90;99.90;;;;;;5082083;28;20048;-78
2022/01/24 03:15:24;;;;;;;13.43;8.40;;;4.90;99.90;;;;;;5099646;28;20048;-77
2022/01/24 03:17:50;;;;;;;13.95;7.40;;;4.80;99.90;;;;;;5088360;28;20052;-78
2022/01/24 03:20:16;;;;;;;16.52;8.45;;;4.80;99.90;;;;;;5083785;28;20093;-79
2022/01/24 03:22:41;;;;;;;16.00;8.93;;;4.80;99.90;;;;;;5081468;28;20043;-79
2022/01/24 03:25:07;;;;;;;15.05;7.63;;;4.80;99.90;;;;;;5082917;28;20563;-79
2022/01/24 03:27:33;;;;;;;13.98;8.18;;;4.80;99.90;;;;;;5101965;28;20127;-77
2022/01/24 03:29:59;;;;;;;14.65;8.68;;;5.00;99.90;;;;;;5080090;28;20097;-77
2022/01/24 03:32:24;;;;;;;16.10;8.63;;;4.80;99.90;;;;;;5090506;28;20039;-78
2022/01/24 03:34:50;;;;;;;18.23;9.35;;;4.80;99.90;;;;;;5087644;28;20048;-78
2022/01/24 03:37:16;;;;;;;16.40;7.88;;;4.80;99.90;;;;;;5088147;28;20053;-77
2022/01/24 03:39:41;;;;;;;17.45;8.73;;;4.80;99.90;;;;;;5088021;28;20052;-77
2022/01/24 03:42:07;;;;;;;15.43;8.60;;;4.80;99.90;;;;;;5096592;28;20039;-77
2022/01/24 03:44:33;;;;;;;13.52;8.05;;;4.80;99.90;;;;;;5086167;28;20044;-76
2022/01/24 03:49:48;;;;;;;15.80;8.65;;;4.80;99.90;;;;;;5081745;28;20049;-76
2022/01/24 03:52:15;;;;;;;15.88;8.35;;;4.80;99.90;;;;;;5078821;28;20053;-76
2022/01/24 03:54:45;;;;;;;14.88;8.30;;;4.90;99.90;;;;;;5079777;28;20097;-76
2022/01/24 03:57:16;;;;;;;13.48;7.75;;;4.80;99.90;;;;;;5099760;28;20040;-76
2022/01/24 03:59:42;;;;;;;16.38;9.05;;;4.80;99.90;;;;;;5083606;28;20104;-76
2022/01/24 04:02:08;;;;;;;14.77;9.48;;;4.80;99.90;;;;;;5095910;28;20056;-77
2022/01/24 04:04:34;;;;;;;17.15;8.85;;;4.80;99.90;;;;;;5090103;28;20040;-78
2022/01/24 04:07:00;;;;;;;16.25;9.43;;;4.70;99.90;;;;;;5078494;28;20074;-79
2022/01/24 04:09:26;;;;;;;15.77;8.32;;;4.80;99.90;;;;;;5080697;28;20520;-77
2022/01/24 04:11:55;;;;;;;14.65;8.13;;;4.80;99.90;;;;;;5079183;28;20413;-77
2022/01/24 04:14:35;;;;;;;17.75;8.75;;;4.80;99.90;;;;;;5079172;28;20485;-76
2022/01/24 04:22:33;;;;;;;18.95;9.40;;;4.70;99.90;;;;;;5080366;28;20099;-77
2022/01/24 04:25:01;;;;;;;14.13;8.82;;;4.70;99.90;;;;;;5077916;28;20053;-77
2022/01/24 04:27:28;;;;;;;14.77;8.15;;;4.70;99.90;;;;;;5078992;28;20048;-77
2022/01/24 04:29:55;;;;;;;16.65;9.05;;;4.70;99.90;;;;;;5093230;28;20062;-80
2022/01/24 04:32:21;;;;;;;27.40;13.45;;;4.70;99.90;;;;;;5084275;28;20040;-78
2022/01/24 04:34:47;;;;;;;24.83;13.15;;;4.70;99.90;;;;;;5082508;28;20055;-78
2022/01/24 04:37:14;;;;;;;22.20;11.25;;;4.80;99.90;;;;;;5092356;28;20056;-77
2022/01/24 04:39:39;;;;;;;22.88;11.57;;;4.80;99.90;;;;;;5086368;28;20104;-76
2022/01/24 04:42:10;;;;;;;18.20;9.85;;;4.80;99.90;;;;;;5079564;28;20041;-76
2022/01/24 04:47:30;;;;;;;18.42;10.70;;;4.80;99.90;;;;;;5079568;28;20075;-76
2022/01/24 04:53:08;;;;;;;20.02;10.88;;;4.80;99.90;;;;;;5084299;28;20048;-76
2022/01/24 04:55:26;;;;;;;18.88;9.93;;;4.80;99.90;;;;;;5085615;28;20130;-76
2022/01/24 04:57:52;;;;;;;16.08;10.10;;;4.90;99.90;;;;;;5092272;28;20048;-77
2022/01/24 05:00:18;;;;;;;20.08;10.48;;;4.80;99.90;;;;;;5077325;28;20045;-77
2022/01/24 05:02:43;;;;;;;19.55;11.10;;;4.80;99.90;;;;;;5060657;28;20063;-77
2022/01/24 05:05:13;;;;;;;16.75;9.32;;;4.80;99.90;;;;;;5079463;28;20048;-77
2022/01/24 05:07:39;;;;;;;18.70;9.95;;;4.90;99.90;;;;;;5077035;28;20048;-76
2022/01/24 05:10:26;;;;;;;19.20;11.15;;;4.80;99.90;;;;;;5077598;28;20055;-76
2022/01/24 05:23:35;;;;;;;26.30;14.55;;;4.90;99.90;;;;;;5079623;28;20041;-77
2022/01/24 05:26:04;;;;;;;27.83;14.75;;;4.80;99.90;;;;;;5078769;28;20404;-77
2022/01/24 05:28:31;;;;;;;29.17;13.75;;;4.80;99.90;;;;;;5093881;28;20069;-77
2022/01/24 05:30:58;;;;;;;30.10;13.93;;;4.80;99.90;;;;;;5092194;28;20095;-76
2022/01/24 05:33:25;;;;;;;29.60;14.15;;;4.80;99.90;;;;;;5093784;28;20048;-76
2022/01/24 05:35:51;;;;;;;30.88;14.70;;;4.70;99.90;;;;;;5077632;28;20113;-76
2022/01/24 05:38:17;;;;;;;29.88;14.13;;;4.70;99.90;;;;;;5097145;28;20080;-76
2022/01/24 05:40:44;;;;;;;31.67;14.98;;;4.80;99.90;;;;;;5099511;28;20051;-76
2022/01/24 05:43:09;;;;;;;32.63;15.10;;;4.80;99.90;;;;;;5089839;28;20096;-76
2022/01/24 05:45:35;;;;;;;35.80;16.80;;;4.80;99.90;;;;;;5084719;28;20069;-79
2022/01/24 05:48:02;;;;;;;36.08;18.20;;;4.70;99.90;;;;;;5091534;28;20075;-77
2022/01/24 05:50:28;;;;;;;32.22;15.00;;;4.80;99.90;;;;;;5076990;28;20041;-76
2022/01/24 05:52:54;;;;;;;27.42;15.50;;;5.10;99.90;;;;;;5079129;28;20405;-76
2022/01/24 05:55:19;;;;;;;31.73;15.68;;;4.90;99.90;;;;;;5068025;28;20048;-76
2022/01/24 05:57:45;;;;;;;31.80;16.15;;;4.90;99.90;;;;;;5086842;28;20043;-76
2022/01/24 06:00:13;;;;;;;33.90;15.85;;;4.90;99.90;;;;;;5098425;28;20040;-77
2022/01/24 06:02:39;;;;;;;36.90;17.40;;;4.90;99.90;;;;;;5096835;28;20094;-77
2022/01/24 06:05:06;;;;;;;33.90;16.52;;;4.90;99.90;;;;;;5077090;28;20052;-76
2022/01/24 06:07:32;;;;;;;36.72;17.30;;;4.90;99.90;;;;;;5076271;28;20045;-76
2022/01/24 06:09:58;;;;;;;39.40;17.67;;;4.90;99.90;;;;;;5079234;28;20590;-76
2022/01/24 06:12:25;;;;;;;37.55;17.85;;;4.90;99.90;;;;;;5085010;28;20044;-76
2022/01/24 06:14:50;;;;;;;35.10;16.95;;;4.90;99.90;;;;;;5082130;28;20086;-76
2022/01/24 06:17:17;;;;;;;35.95;16.92;;;4.90;99.90;;;;;;5080183;28;20048;-76
2022/01/24 06:19:43;;;;;;;36.10;15.25;;;4.90;99.90;;;;;;5081688;28;20048;-77
2022/01/24 06:22:09;;;;;;;35.90;18.13;;;4.90;99.90;;;;;;5082522;28;20113;-76
2022/01/24 06:24:35;;;;;;;35.75;17.75;;;4.90;99.90;;;;;;5079796;28;20131;-76
2022/01/24 06:27:01;;;;;;;38.97;17.55;;;4.90;99.90;;;;;;5080851;28;20539;-76
2022/01/24 06:29:27;;;;;;;36.88;18.60;;;4.90;99.90;;;;;;5081453;28;20048;-76
2022/01/24 06:31:52;;;;;;;42.22;18.55;;;4.90;99.90;;;;;;5091916;28;20047;-76
2022/01/24 06:34:18;;;;;;;40.17;19.02;;;4.90;99.90;;;;;;5088901;28;20056;-76
2022/01/24 06:36:44;;;;;;;40.85;20.15;;;5.00;99.90;;;;;;5080103;28;20048;-75
2022/01/24 06:39:11;;;;;;;40.90;19.70;;;4.90;99.90;;;;;;5080262;28;20055;-76
2022/01/24 06:41:37;;;;;;;38.83;18.35;;;5.00;99.90;;;;;;5087460;28;20104;-76
2022/01/24 06:44:03;;;;;;;43.90;19.67;;;4.90;99.90;;;;;;5110247;28;20101;-76
2022/01/24 06:46:30;;;;;;;39.38;18.67;;;4.90;99.90;;;;;;5100619;28;20083;-76
2022/01/24 06:48:56;;;;;;;43.00;18.83;;;5.00;99.90;;;;;;5094409;28;20051;-76
2022/01/24 06:51:23;;;;;;;43.28;20.40;;;5.00;99.90;;;;;;5088199;28;20135;-76
2022/01/24 06:53:49;;;;;;;44.47;20.83;;;5.00;99.90;;;;;;5098470;28;20075;-76
2022/01/24 06:56:15;;;;;;;38.65;18.25;;;5.00;99.90;;;;;;5081579;28;20045;-76
2022/01/24 06:58:41;;;;;;;44.83;19.90;;;5.00;99.90;;;;;;5084764;28;20499;-76
2022/01/24 07:01:07;;;;;;;44.92;20.20;;;4.90;99.90;;;;;;5086298;28;20051;-76
2022/01/24 07:03:33;;;;;;;43.83;20.10;;;4.90;99.90;;;;;;5080213;28;20561;-76
2022/01/24 07:06:00;;;;;;;38.17;19.02;;;5.00;99.90;;;;;;5080180;28;20094;-76
2022/01/24 07:08:26;;;;;;;39.47;20.38;;;5.00;99.90;;;;;;5079566;28;20112;-76
2022/01/24 07:10:52;;;;;;;40.80;17.88;;;5.00;99.90;;;;;;5096654;28;20075;-76
2022/01/24 07:13:20;;;;;;;43.42;20.77;;;5.00;99.90;;;;;;5083906;28;20044;-77
2022/01/24 07:15:51;;;;;;;43.28;19.15;;;4.90;99.90;;;;;;5080739;28;20107;-77
2022/01/24 07:21:00;;;;;;;37.42;18.45;;;5.00;99.90;;;;;;5080125;28;20056;-77
2022/01/24 07:23:26;;;;;;;41.42;20.08;;;4.90;99.90;;;;;;5080111;28;20052;-77
2022/01/24 07:25:52;;;;;;;46.58;20.23;;;4.90;99.90;;;;;;5080510;28;20128;-77
2022/01/24 07:28:18;;;;;;;47.10;20.23;;;4.80;99.90;;;;;;5079681;28;20044;-77
2022/01/24 07:30:44;;;;;;;47.33;22.08;;;4.80;99.90;;;;;;5080036;28;20066;-77
2022/01/24 07:33:10;;;;;;;46.08;19.75;;;4.70;99.90;;;;;;5083419;28;20036;-76
2022/01/24 07:35:36;;;;;;;44.75;21.05;;;4.80;99.90;;;;;;5079722;28;20051;-76
2022/01/24 07:38:05;;;;;;;44.00;19.50;;;4.80;99.90;;;;;;5083545;28;20119;-76
2022/01/24 07:40:37;;;;;;;40.65;19.08;;;4.80;99.90;;;;;;5079323;28;20058;-76
2022/01/24 07:43:12;;;;;;;49.88;20.10;;;5.10;99.90;;;;;;5092597;28;20122;-76
2022/01/24 07:45:43;;;;;;;51.75;21.58;;;4.80;99.90;;;;;;5103235;28;20105;-76
2022/01/24 07:48:09;;;;;;;46.60;20.67;;;4.90;99.90;;;;;;5093947;28;20054;-76
2022/01/24 07:50:40;;;;;;;47.58;20.90;;;4.80;99.90;;;;;;5089297;28;20048;-76
2022/01/24 07:53:09;;;;;;;44.35;23.05;;;4.80;99.90;;;;;;5081379;28;20416;-75
2022/01/24 07:55:35;;;;;;;47.63;21.52;;;4.80;99.90;;;;;;5088609;28;20036;-76
2022/01/24 07:58:01;;;;;;;46.42;20.33;;;4.80;99.90;;;;;;5094064;28;20101;-76
2022/01/24 08:00:27;;;;;;;45.00;21.10;;;4.90;99.90;;;;;;5089643;28;20076;-76
2022/01/24 08:02:53;;;;;;;46.28;20.65;;;4.90;99.90;;;;;;5093507;28;20053;-76
2022/01/24 08:05:19;;;;;;;46.95;21.20;;;4.80;99.90;;;;;;5080530;28;20037;-76
2022/01/24 08:07:44;;;;;;;44.40;20.73;;;4.80;99.90;;;;;;5068793;28;20079;-75
2022/01/24 08:10:11;;;;;;;53.28;21.75;;;4.80;99.90;;;;;;5081066;28;20044;-76
2022/01/24 08:12:38;;;;;;;49.70;22.73;;;4.80;99.90;;;;;;5061271;28;20536;-76
2022/01/24 08:15:06;;;;;;;48.83;22.17;;;4.90;99.90;;;;;;5080690;28;20406;-76
2022/01/24 08:17:32;;;;;;;55.17;22.35;;;4.90;99.90;;;;;;5083219;28;20048;-76
2022/01/24 08:19:58;;;;;;;50.38;22.40;;;4.90;99.90;;;;;;5087446;28;20060;-76
2022/01/24 08:22:25;;;;;;;51.17;23.33;;;4.90;99.90;;;;;;5090036;28;20086;-76
2022/01/24 08:24:51;;;;;;;52.33;24.30;;;4.90;99.90;;;;;;5083144;28;20055;-76
2022/01/24 08:27:18;;;;;;;54.03;23.52;;;5.00;99.90;;;;;;5087537;28;20068;-76
2022/01/24 08:29:45;;;;;;;45.03;22.35;;;5.00;99.90;;;;;;5099037;28;20044;-76
2022/01/24 08:32:12;;;;;;;51.38;22.75;;;5.00;99.90;;;;;;5084012;28;20094;-76
2022/01/24 08:34:38;;;;;;;49.35;22.77;;;5.10;99.90;;;;;;5088175;28;20070;-76
2022/01/24 08:37:04;;;;;;;46.78;20.88;;;5.10;99.90;;;;;;5083681;28;20056;-76
2022/01/24 08:39:30;;;;;;;51.83;22.42;;;5.10;99.90;;;;;;5094381;28;20036;-76
2022/01/24 08:42:03;;;;;;;48.00;21.27;;;5.10;99.90;;;;;;5095399;28;20043;-76
2022/01/24 08:46:58;;;;;;;49.65;22.15;;;5.00;99.90;;;;;;5087994;28;20045;-76
2022/01/24 08:49:24;;;;;;;53.13;23.00;;;5.00;99.90;;;;;;5088944;28;20077;-76
2022/01/24 08:51:50;;;;;;;49.20;23.30;;;5.00;99.90;;;;;;5090729;28;20044;-75
2022/01/24 08:54:16;;;;;;;58.25;24.65;;;5.10;99.90;;;;;;5080918;28;20064;-76
2022/01/24 08:56:42;;;;;;;56.05;23.38;;;5.10;99.90;;;;;;5083118;28;20060;-76
2022/01/24 08:59:08;;;;;;;55.78;24.33;;;5.20;99.90;;;;;;5076210;28;20059;-76
2022/01/24 09:01:34;;;;;;;57.88;24.17;;;5.10;99.90;;;;;;5061178;28;20056;-76
2022/01/24 09:04:00;;;;;;;51.85;25.13;;;5.30;99.90;;;;;;5081967;28;20049;-76
2022/01/24 09:06:28;;;;;;;52.05;23.05;;;5.20;99.90;;;;;;5083145;28;20048;-76
2022/01/24 09:09:00;;;;;;;52.50;23.73;;;5.20;99.90;;;;;;5078388;28;20095;-76
2022/01/24 09:11:34;;;;;;;52.90;23.55;;;5.20;99.90;;;;;;5085012;28;20055;-76
2022/01/24 09:14:02;;;;;;;53.78;24.52;;;5.30;99.90;;;;;;5077701;28;20062;-73
2022/01/24 09:16:27;;;;;;;52.53;22.88;;;5.40;99.90;;;;;;5076552;28;20036;-73
2022/01/24 09:18:54;;;;;;;55.30;22.83;;;5.30;99.90;;;;;;5083471;28;20040;-73
2022/01/24 09:21:20;;;;;;;53.10;23.48;;;5.30;99.90;;;;;;5087973;28;20060;-73
2022/01/24 09:23:46;;;;;;;49.70;22.60;;;5.20;99.90;;;;;;5098899;28;20594;-73
2022/01/24 09:26:12;;;;;;;52.72;24.85;;;5.20;99.90;;;;;;5097523;28;20056;-73
2022/01/24 09:28:38;;;;;;;47.13;22.35;;;5.20;99.90;;;;;;5083930;28;20063;-74
2022/01/24 09:31:04;;;;;;;54.78;26.42;;;5.20;99.90;;;;;;5093380;28;20040;-78
2022/01/24 09:33:31;;;;;;;48.05;22.77;;;5.20;99.90;;;;;;5112589;28;20031;-77
2022/01/24 09:35:59;;;;;;;57.05;23.52;;;5.20;99.90;;;;;;5081722;28;20052;-78
2022/01/24 09:38:31;;;;;;;53.08;24.55;;;5.10;99.90;;;;;;5077174;28;20040;-78
2022/01/24 09:41:03;;;;;;;53.67;23.70;;;5.20;99.90;;;;;;5075471;28;20071;-79
2022/01/24 09:43:28;;;;;;;55.70;24.88;;;5.20;99.90;;;;;;5083544;28;20059;-75
2022/01/24 09:45:56;;;;;;;56.35;25.55;;;5.20;99.90;;;;;;5098358;28;20048;-75
2022/01/24 09:48:22;;;;;;;54.55;23.15;;;5.20;99.90;;;;;;5074558;28;20507;-79
2022/01/24 09:50:51;;;;;;;50.72;25.00;;;5.40;99.90;;;;;;5075348;28;20502;-81
2022/01/24 09:53:17;;;;;;;49.40;23.75;;;5.20;99.90;;;;;;5078022;28;20433;-80
2022/01/24 09:55:43;;;;;;;42.58;22.33;;;5.20;99.90;;;;;;5076621;28;20119;-82
2022/01/24 09:58:09;;;;;;;47.70;21.65;;;5.20;99.90;;;;;;5084640;28;20048;-77
2022/01/24 10:00:35;;;;;;;47.65;22.77;;;5.20;99.90;;;;;;5088136;28;20036;-79
2022/01/24 10:03:02;;;;;;;50.50;24.05;;;5.20;99.90;;;;;;5075205;28;20041;-80
2022/01/24 10:05:37;;;;;;;50.15;23.92;;;5.20;99.90;;;;;;5077565;28;20060;-83
2022/01/24 10:08:06;;;;;;;47.05;23.73;;;5.10;99.90;;;;;;5088251;28;20076;-81
2022/01/24 10:10:45;;;;;;;52.80;24.80;;;5.30;99.90;;;;;;5083441;28;20033;-82
2022/01/24 10:16:30;;;;;;;48.88;23.08;;;5.10;99.90;;;;;;5075664;28;20516;-80
2022/01/24 10:19:09;;;;;;;51.50;24.67;;;5.10;99.90;;;;;;5096974;28;20875;-81
2022/01/24 10:21:42;;;;;;;47.42;23.73;;;5.10;99.90;;;;;;5085178;28;20434;-82
2022/01/24 10:24:10;;;;;;;46.65;24.73;;;5.10;99.90;;;;;;5076762;28;20055;-81
2022/01/24 10:26:36;;;;;;;51.58;25.15;;;5.10;99.90;;;;;;5081061;28;20065;-81
2022/01/24 10:29:09;;;;;;;49.03;24.75;;;5.10;99.90;;;;;;5083964;28;20056;-80
2022/01/24 10:31:45;;;;;;;43.75;21.92;;;5.20;99.90;;;;;;5086005;28;20033;-79
2022/01/24 10:34:28;;;;;;;47.42;23.00;;;5.20;99.90;;;;;;5079431;28;20048;-81
2022/01/24 10:36:56;;;;;;;45.93;23.23;;;5.20;99.90;;;;;;5031255;28;1268054;-80
2022/01/24 10:39:53;;;;;;;46.13;22.35;;;5.20;99.90;;;;;;5077957;28;20060;-84
2022/01/24 10:44:52;;;;;;;47.13;21.98;;;5.20;99.90;;;;;;5076800;28;20797;-85
2022/01/24 10:47:24;;;;;;;44.25;23.00;;;5.30;99.90;;;;;;5085636;28;20089;-84
2022/01/24 10:49:51;;;;;;;47.45;23.83;;;5.40;99.90;;;;;;5088642;28;20072;-83
2022/01/24 10:52:23;;;;;;;41.72;21.83;;;5.60;99.90;;;;;;5075478;28;20579;-83
2022/01/24 10:54:52;;;;;;;46.72;22.85;;;5.20;99.90;;;;;;5075609;28;20056;-81
2022/01/24 10:57:27;;;;;;;49.22;22.83;;;5.20;99.90;;;;;;5076674;28;20571;-80
2022/01/24 11:00:13;;;;;;;46.03;22.92;;;5.20;99.90;;;;;;5059848;28;20087;-79
2022/01/24 11:02:42;;;;;;;42.30;21.92;;;5.20;99.90;;;;;;5080989;28;20056;-80
2022/01/24 11:05:14;;;;;;;38.47;21.23;;;5.20;99.90;;;;;;5095058;28;20295;-80
2022/01/24 11:07:52;;;;;;;42.08;21.42;;;5.20;99.90;;;;;;5099078;28;20062;-79
2022/01/24 11:10:18;;;;;;;45.10;22.60;;;5.20;99.90;;;;;;5085178;28;20083;-80
2022/01/24 11:12:44;;;;;;;44.97;23.23;;;5.20;99.90;;;;;;5085590;28;20108;-80
2022/01/24 11:15:11;;;;;;;44.28;21.90;;;5.20;99.90;;;;;;5091976;28;20586;-80
2022/01/24 11:17:37;;;;;;;45.00;23.63;;;5.50;99.90;;;;;;5079648;28;20056;-79
2022/01/24 11:20:04;;;;;;;43.95;23.77;;;5.20;99.90;;;;;;5086742;28;20105;-78
2022/01/24 11:22:33;;;;;;;49.67;24.25;;;5.20;99.90;;;;;;5081248;28;20044;-78
2022/01/24 11:25:06;;;;;;;52.30;25.30;;;5.20;99.90;;;;;;5082826;28;20046;-79
2022/01/24 11:27:33;;;;;;;48.22;24.05;;;5.20;99.90;;;;;;5080982;28;20044;-82
2022/01/24 11:30:11;;;;;;;56.22;27.27;;;5.10;99.90;;;;;;5089201;28;20550;-82
2022/01/24 11:32:47;;;;;;;51.10;24.55;;;5.10;99.90;;;;;;5104349;28;20048;-80
2022/01/24 11:35:27;;;;;;;54.40;27.77;;;5.10;99.90;;;;;;5101856;28;20062;-80
2022/01/24 11:37:53;;;;;;;43.55;23.23;;;5.10;99.90;;;;;;5078231;28;20056;-80
2022/01/24 11:40:23;;;;;;;48.00;23.65;;;5.10;99.90;;;;;;5088043;28;20051;-81
2022/01/24 11:42:49;;;;;;;45.55;22.45;;;5.00;99.90;;;;;;5095523;28;20052;-81
2022/01/24 11:45:19;;;;;;;41.40;21.65;;;5.10;99.90;;;;;;5092737;28;20040;-79
2022/01/24 11:47:48;;;;;;;48.45;25.70;;;5.00;99.90;;;;;;5062359;28;20100;-78
2022/01/24 11:50:42;;;;;;;42.92;22.25;;;5.00;99.90;;;;;;5078595;28;20044;-80
2022/01/24 11:53:26;;;;;;;46.28;23.35;;;5.10;99.90;;;;;;5070102;28;20131;-78
2022/01/24 11:55:54;;;;;;;48.10;23.17;;;5.10;99.90;;;;;;5061764;28;20068;-79
2022/01/24 11:58:28;;;;;;;43.92;21.05;;;5.10;99.90;;;;;;5103244;28;20107;-81
2022/01/24 12:00:57;;;;;;;44.88;21.70;;;5.00;99.90;;;;;;5087770;28;20080;-78
2022/01/24 12:03:28;;;;;;;49.28;23.33;;;5.00;99.90;;;;;;5078251;28;20508;-79
2022/01/24 12:06:09;;;;;;;51.55;24.23;;;5.10;99.90;;;;;;5091205;28;20108;-77
2022/01/24 12:08:42;;;;;;;47.97;24.20;;;5.10;99.90;;;;;;5095669;28;20104;-77
2022/01/24 12:11:18;;;;;;;45.30;23.02;;;5.10;99.90;;;;;;5099230;28;20559;-77
2022/01/24 12:13:47;;;;;;;47.25;22.85;;;5.10;99.90;;;;;;5098426;28;20048;-77
2022/01/24 12:16:15;;;;;;;47.78;23.55;;;5.10;99.90;;;;;;5081935;28;20044;-78
2022/01/24 12:18:42;;;;;;;46.28;22.92;;;5.10;99.90;;;;;;5091019;28;20588;-76
2022/01/24 12:21:10;;;;;;;48.90;23.15;;;5.10;99.90;;;;;;5088747;28;20364;-76
2022/01/24 12:23:44;;;;;;;51.42;23.63;;;5.10;99.90;;;;;;5086369;28;20052;-78
2022/01/24 12:26:12;;;;;;;54.22;24.90;;;5.10;99.90;;;;;;5083301;28;20051;-77
2022/01/24 12:28:44;;;;;;;46.60;23.77;;;5.10;99.90;;;;;;5077127;28;20060;-77
2022/01/24 12:31:35;;;;;;;41.65;20.40;;;5.10;99.90;;;;;;5084677;28;20048;-78
2022/01/24 12:34:09;;;;;;;42.92;21.77;;;5.10;99.90;;;;;;5060626;28;20048;-79
2022/01/24 12:36:48;;;;;;;43.63;22.02;;;5.00;99.90;;;;;;5080526;28;20045;-76
2022/01/24 12:39:17;;;;;;;41.30;20.70;;;5.00;99.90;;;;;;5078665;28;20045;-75
2022/01/24 12:41:48;;;;;;;41.67;20.63;;;5.10;99.90;;;;;;5077203;28;20108;-76
2022/01/24 12:47:18;;;;;;;42.70;21.60;;;5.10;99.90;;;;;;5095264;28;20066;-78
2022/01/24 12:49:46;;;;;;;44.20;21.27;;;5.10;99.90;;;;;;5078705;28;20045;-77
2022/01/24 12:52:15;;;;;;;38.33;20.65;;;5.10;99.90;;;;;;5061151;28;20497;-79
2022/01/24 12:54:49;;;;;;;42.97;20.63;;;5.00;99.90;;;;;;5082623;28;20083;-78
2022/01/24 12:57:20;;;;;;;39.22;20.02;;;5.00;99.90;;;;;;5085778;28;20442;-79
2022/01/24 13:00:20;;;;;;;37.97;20.25;;;5.00;99.90;;;;;;5093114;28;20051;-80
2022/01/24 13:02:46;;;;;;;34.42;18.67;;;4.90;99.90;;;;;;5075206;28;20053;-78
2022/01/24 13:05:23;;;;;;;43.53;20.80;;;4.90;99.90;;;;;;5077829;28;20059;-79
2022/01/24 13:07:58;;;;;;;40.05;20.13;;;4.90;99.90;;;;;;5078043;28;20056;-77
2022/01/24 13:10:27;;;;;;;38.38;18.92;;;4.90;99.90;;;;;;5086187;28;20095;-79
2022/01/24 13:13:03;;;;;;;42.30;19.33;;;4.90;99.90;;;;;;5084364;28;20055;-78
2022/01/24 13:21:38;;;;;;;42.13;20.90;;;4.90;99.90;;;;;;5084695;28;20467;-79
2022/01/24 13:24:00;;;;;;;41.45;19.77;;;4.80;99.90;;;;;;5088917;28;20153;-78
2022/01/24 13:26:26;;;;;;;40.85;20.77;;;5.00;99.90;;;;;;5087734;28;20048;-77
2022/01/24 13:29:04;;;;;;;43.28;21.90;;;4.90;99.90;;;;;;5085377;28;20407;-78
2022/01/24 13:31:30;;;;;;;39.97;21.17;;;4.80;99.90;;;;;;5087175;28;20055;-78
2022/01/24 13:33:57;;;;;;;40.92;20.23;;;4.80;99.90;;;;;;5097475;28;20048;-78
2022/01/24 13:36:23;;;;;;;41.97;20.48;;;4.80;99.90;;;;;;5082876;28;20067;-80
2022/01/24 13:38:51;;;;;;;41.78;17.50;;;4.80;99.90;;;;;;5059869;28;20052;-81
2022/01/24 13:41:20;;;;;;;41.03;19.38;;;4.90;99.90;;;;;;5078402;28;20455;-81
2022/01/24 13:43:45;;;;;;;37.97;20.13;;;4.80;99.90;;;;;;5088534;28;20063;-78
2022/01/24 13:46:26;;;;;;;40.03;18.88;;;4.80;99.90;;;;;;5075990;28;20036;-78
2022/01/24 13:48:57;;;;;;;39.20;20.05;;;4.70;99.90;;;;;;5085941;28;20137;-78
2022/01/24 13:51:34;;;;;;;32.15;17.85;;;4.70;99.90;;;;;;5060218;28;20048;-79
2022/01/24 13:54:01;;;;;;;40.90;19.95;;;4.70;99.90;;;;;;5076449;28;20049;-76
2022/01/24 13:56:27;;;;;;;41.55;21.08;;;4.70;99.90;;;;;;5076888;28;20071;-77
2022/01/24 13:59:16;;;;;;;37.33;18.85;;;4.70;99.90;;;;;;5075794;28;20056;-79
2022/01/24 14:02:01;;;;;;;38.65;19.58;;;4.70;99.90;;;;;;5094898;28;20085;-80
2022/01/24 14:04:35;;;;;;;40.28;20.42;;;4.70;99.90;;;;;;5081922;28;20075;-80
2022/01/24 14:07:12;;;;;;;40.30;20.02;;;4.70;99.90;;;;;;5091762;28;20056;-79
2022/01/24 14:09:44;;;;;;;41.17;20.13;;;4.60;99.90;;;;;;5081703;28;20100;-77
2022/01/24 14:12:19;;;;;;;40.38;21.10;;;4.60;99.90;;;;;;5077038;28;20534;-77
2022/01/24 14:14:55;;;;;;;38.92;20.05;;;4.60;99.90;;;;;;5076057;28;20041;-78
2022/01/24 14:17:30;;;;;;;40.78;21.63;;;4.60;99.90;;;;;;5077663;28;20053;-79
2022/01/24 14:20:18;;;;;;;38.67;20.48;;;4.60;99.90;;;;;;5079316;28;20048;-78
2022/01/24 14:22:52;;;;;;;39.00;20.55;;;4.60;99.90;;;;;;5065599;28;20049;-80
2022/01/24 14:25:29;;;;;;;36.00;19.58;;;4.60;99.90;;;;;;5079994;28;20441;-80
2022/01/24 14:28:15;;;;;;;36.00;21.30;;;4.50;99.90;;;;;;5078140;28;20660;-80
2022/01/24 14:30:46;;;;;;;35.92;19.13;;;4.50;99.90;;;;;;5093514;28;20050;-81
2022/01/24 14:33:28;;;;;;;28.77;17.15;;;4.40;99.90;;;;;;5092351;28;20051;-80
2022/01/24 14:36:01;;;;;;;31.88;18.08;;;4.40;99.90;;;;;;5080626;28;20064;-77